Time;durP1;ratioP1;P1;durP2;ratioP2;P2;SDS_P1;SDS_P2;PMS_P1;PMS_P2;Temp;Humidity;BMP_temperature;BMP_pressure;BME280_temperature;BME280_humidity;BME280_pressure;Samples;Min_cycle;Max_cycle;Signal;HPM_P1;HPM_P2
2023/01/08 00:02:13;;;;;;;2.97;2.57;;;12.10;99.90;;;;;;5041471;28;20176;-67
2023/01/08 00:04:39;;;;;;;2.97;2.43;;;12.10;99.90;;;;;;5039965;28;20441;-67
2023/01/08 00:07:04;;;;;;;3.70;2.40;;;12.00;99.90;;;;;;5037970;28;20631;-68
2023/01/08 00:09:30;;;;;;;4.33;3.93;;;12.00;99.90;;;;;;5036147;28;20634;-68
2023/01/08 00:11:55;;;;;;;6.87;2.60;;;12.10;99.90;;;;;;5033220;28;20192;-68
2023/01/08 00:14:21;;;;;;;5.50;1.90;;;12.10;99.90;;;;;;5032860;28;20211;-68
2023/01/08 00:16:46;;;;;;;4.33;2.60;;;12.00;99.90;;;;;;5034358;28;20697;-68
2023/01/08 00:19:12;;;;;;;2.30;2.10;;;11.90;99.90;;;;;;5035830;28;20217;-68
2023/01/08 00:21:38;;;;;;;3.20;2.33;;;12.00;99.90;;;;;;5037424;28;20183;-67
2023/01/08 00:24:04;;;;;;;2.10;1.90;;;12.10;99.90;;;;;;5039318;28;20551;-67
2023/01/08 00:26:30;;;;;;;3.43;2.00;;;12.00;99.90;;;;;;5041228;28;20183;-68
2023/01/08 00:28:55;;;;;;;3.23;2.33;;;11.90;99.90;;;;;;5042897;28;20433;-68
2023/01/08 00:31:21;;;;;;;2.43;1.70;;;11.80;99.90;;;;;;5044807;28;20232;-68
2023/01/08 00:33:46;;;;;;;2.70;2.50;;;11.80;99.90;;;;;;5046351;28;20257;-67
2023/01/08 00:36:15;;;;;;;2.80;1.77;;;11.80;99.90;;;;;;5048098;28;20187;-68
2023/01/08 00:38:42;;;;;;;3.00;2.07;;;11.80;99.90;;;;;;5049741;28;20258;-67
2023/01/08 00:41:08;;;;;;;9.67;2.87;;;11.80;99.90;;;;;;5051428;28;20433;-67
2023/01/08 00:43:33;;;;;;;1.70;1.60;;;11.80;99.90;;;;;;5051309;28;20425;-67
2023/01/08 00:45:59;;;;;;;3.10;2.40;;;11.90;99.90;;;;;;5049207;28;20214;-67
2023/01/08 00:48:25;;;;;;;2.30;2.10;;;11.90;99.90;;;;;;5038706;28;20175;-67
2023/01/08 00:50:51;;;;;;;2.40;2.20;;;11.80;99.90;;;;;;5038826;28;20188;-67
2023/01/08 00:53:18;;;;;;;4.10;1.87;;;11.70;99.90;;;;;;5040268;28;20551;-67
2023/01/08 00:55:43;;;;;;;3.10;2.03;;;11.70;99.90;;;;;;5042278;28;20427;-67
2023/01/08 00:58:10;;;;;;;2.60;2.23;;;11.80;99.90;;;;;;5044124;28;20442;-67
2023/01/08 01:00:35;;;;;;;2.47;2.23;;;11.80;99.90;;;;;;5046663;28;20551;-68
2023/01/08 01:03:01;;;;;;;2.73;2.43;;;11.80;99.90;;;;;;5051355;28;20432;-68
2023/01/08 01:05:26;;;;;;;3.80;2.10;;;11.90;99.90;;;;;;5051999;28;20187;-68
2023/01/08 01:07:52;;;;;;;2.43;2.00;;;11.80;99.90;;;;;;5054196;28;20256;-68
2023/01/08 01:10:18;;;;;;;3.13;2.03;;;11.90;99.90;;;;;;5032367;28;20549;-68
2023/01/08 01:12:44;;;;;;;5.30;2.20;;;11.90;99.90;;;;;;5038396;28;20186;-68
2023/01/08 01:15:13;;;;;;;2.87;2.13;;;11.90;99.90;;;;;;5039942;28;20448;-67
2023/01/08 01:17:39;;;;;;;3.43;1.93;;;11.90;99.90;;;;;;5040436;28;20182;-67
2023/01/08 01:20:07;;;;;;;3.67;2.20;;;11.70;99.90;;;;;;5042384;28;20438;-67
2023/01/08 01:22:33;;;;;;;2.40;2.00;;;11.80;99.90;;;;;;5044078;28;20519;-68
2023/01/08 01:24:58;;;;;;;2.47;1.90;;;11.80;99.90;;;;;;5045632;28;20525;-68
2023/01/08 01:27:25;;;;;;;4.10;1.70;;;11.80;99.90;;;;;;5047474;28;20198;-67
2023/01/08 01:29:51;;;;;;;4.23;1.93;;;11.70;99.90;;;;;;5049382;28;20187;-68
2023/01/08 05:32:38;;;;;;;1.27;1.17;;;11.50;99.90;;;;;;4891582;29;20544;-70
2023/01/08 05:35:04;;;;;;;2.60;1.77;;;11.60;99.90;;;;;;4894560;29;20489;-71
2023/01/08 05:37:32;;;;;;;4.83;1.57;;;11.60;99.90;;;;;;4892947;29;20195;-71
2023/01/08 05:39:58;;;;;;;1.70;1.50;;;11.50;99.90;;;;;;4889073;29;20460;-70
2023/01/08 05:42:23;;;;;;;1.60;1.33;;;11.40;99.90;;;;;;4882121;29;20812;-69
2023/01/08 05:44:49;;;;;;;4.00;1.33;;;11.50;99.90;;;;;;4898031;29;20189;-71
2023/01/08 05:47:14;;;;;;;2.07;1.50;;;11.50;99.90;;;;;;4885747;29;20241;-71
2023/01/08 05:49:40;;;;;;;1.60;1.30;;;11.50;99.90;;;;;;4889595;29;20534;-73
2023/01/08 05:52:06;;;;;;;1.40;1.30;;;11.50;99.90;;;;;;4886661;29;20189;-72
2023/01/08 05:54:31;;;;;;;2.17;1.43;;;11.50;99.90;;;;;;4891119;29;20751;-72
2023/01/08 05:56:57;;;;;;;1.97;1.53;;;11.40;99.90;;;;;;4890481;29;20820;-72
2023/01/08 05:59:22;;;;;;;1.40;1.30;;;11.40;99.90;;;;;;4891564;29;20247;-72
2023/01/08 06:01:48;;;;;;;3.73;1.60;;;11.30;99.90;;;;;;4888889;29;20193;-72
2023/01/08 06:04:13;;;;;;;1.03;0.93;;;11.30;99.90;;;;;;4895055;29;20264;-73
2023/01/08 06:06:39;;;;;;;1.80;1.30;;;11.30;99.90;;;;;;4887795;29;20192;-72
2023/01/08 06:09:04;;;;;;;1.87;1.53;;;11.30;99.90;;;;;;4881217;29;20193;-72
2023/01/08 06:11:30;;;;;;;1.80;1.43;;;11.40;99.90;;;;;;4887730;29;20207;-71
2023/01/08 06:13:55;;;;;;;2.23;1.30;;;11.40;99.90;;;;;;4896019;29;20223;-70
2023/01/08 06:16:21;;;;;;;1.80;1.20;;;11.40;99.90;;;;;;4894553;29;20220;-70
2023/01/08 06:18:46;;;;;;;1.40;1.20;;;11.40;99.90;;;;;;4892686;29;20475;-71
2023/01/08 06:21:12;;;;;;;1.30;1.10;;;11.50;99.90;;;;;;4890949;29;20651;-71
2023/01/08 06:23:38;;;;;;;2.03;1.20;;;11.40;99.90;;;;;;4887441;29;20645;-70
2023/01/08 06:26:04;;;;;;;4.40;1.20;;;11.50;99.90;;;;;;4889804;29;20189;-71
2023/01/08 06:28:29;;;;;;;1.50;1.30;;;11.50;99.90;;;;;;4892720;29;20862;-70
2023/01/08 06:30:59;;;;;;;1.30;1.20;;;11.60;99.90;;;;;;4881531;29;20228;-70
2023/01/08 06:33:25;;;;;;;4.37;1.53;;;11.60;99.90;;;;;;4879499;29;20220;-70
2023/01/08 06:35:51;;;;;;;1.90;1.30;;;11.70;99.90;;;;;;4885649;29;20440;-74
2023/01/08 06:38:19;;;;;;;1.27;1.07;;;11.70;99.90;;;;;;4897652;29;20632;-71
2023/01/08 06:40:46;;;;;;;1.33;1.10;;;11.60;99.90;;;;;;4896212;29;20806;-71
2023/01/08 06:43:12;;;;;;;1.57;1.13;;;11.60;99.90;;;;;;4892490;29;20440;-71
2023/01/08 06:45:38;;;;;;;1.63;1.30;;;11.50;99.90;;;;;;4885680;29;20432;-70
2023/01/08 06:48:05;;;;;;;2.10;1.20;;;11.50;99.90;;;;;;4891449;29;20866;-72
2023/01/08 06:50:32;;;;;;;1.23;0.90;;;11.60;99.90;;;;;;4889970;29;20669;-73
2023/01/08 06:52:58;;;;;;;1.10;0.83;;;11.60;99.90;;;;;;4891152;29;20441;-71
2023/01/08 06:55:24;;;;;;;1.60;1.50;;;11.50;99.90;;;;;;4893070;29;20478;-73
2023/01/08 06:57:57;;;;;;;1.40;1.27;;;11.60;99.90;;;;;;4894412;29;20195;-73
2023/01/08 07:00:24;;;;;;;1.00;0.90;;;11.50;99.90;;;;;;4868981;29;20453;-72
2023/01/08 07:02:51;;;;;;;1.60;1.20;;;11.50;99.90;;;;;;4897753;29;20512;-72
2023/01/08 07:05:16;;;;;;;1.10;1.00;;;11.50;99.90;;;;;;4898656;29;20445;-72
2023/01/08 07:07:41;;;;;;;1.40;1.00;;;11.40;99.90;;;;;;4897691;29;20492;-74
2023/01/08 07:10:07;;;;;;;1.30;1.20;;;11.50;99.90;;;;;;4880744;29;20213;-74
2023/01/08 07:12:33;;;;;;;2.03;1.03;;;11.40;99.90;;;;;;4883412;29;20189;-74
2023/01/08 07:14:58;;;;;;;2.70;1.47;;;11.40;99.90;;;;;;4887938;29;20310;-72
2023/01/08 07:17:24;;;;;;;4.00;1.10;;;11.40;99.90;;;;;;4888917;29;20628;-79
2023/01/08 07:19:50;;;;;;;1.60;0.93;;;11.40;99.90;;;;;;4888510;29;20185;-70
2023/01/08 07:22:15;;;;;;;2.43;1.30;;;11.40;99.90;;;;;;4887098;29;20540;-71
2023/01/08 07:24:41;;;;;;;2.73;1.23;;;11.50;99.90;;;;;;4892863;29;20541;-73
2023/01/08 07:27:06;;;;;;;1.10;1.00;;;11.40;99.90;;;;;;4894488;29;20220;-72
2023/01/08 07:29:32;;;;;;;1.97;1.43;;;11.50;99.90;;;;;;4896169;29;20196;-72
2023/01/08 07:31:57;;;;;;;1.47;1.20;;;11.50;99.90;;;;;;4894039;29;20232;-77
2023/01/08 07:34:23;;;;;;;2.00;0.80;;;11.50;99.90;;;;;;4895757;29;20703;-76
2023/01/08 07:36:48;;;;;;;1.10;1.00;;;11.50;99.90;;;;;;4894343;29;20206;-78
2023/01/08 07:39:15;;;;;;;1.33;1.10;;;11.60;99.90;;;;;;4889932;29;20653;-77
2023/01/08 07:41:40;;;;;;;1.60;1.37;;;11.60;99.90;;;;;;4887786;29;20188;-78
2023/01/08 07:44:06;;;;;;;2.17;1.30;;;11.50;99.90;;;;;;4890263;29;20772;-75
2023/01/08 07:46:31;;;;;;;1.60;1.47;;;11.50;99.90;;;;;;4887362;29;20653;-74
2023/01/08 07:48:57;;;;;;;1.23;0.90;;;11.50;99.90;;;;;;4886159;29;20189;-75
2023/01/08 07:51:23;;;;;;;1.30;1.00;;;11.40;99.90;;;;;;4889833;29;20187;-75
2023/01/08 07:53:50;;;;;;;1.23;1.10;;;11.20;99.90;;;;;;4894617;29;21007;-70
2023/01/08 07:56:15;;;;;;;1.70;0.90;;;11.20;99.90;;;;;;4895498;29;20247;-71
2023/01/08 07:58:41;;;;;;;3.93;1.50;;;11.10;99.90;;;;;;4896489;29;20468;-71
2023/01/08 08:01:09;;;;;;;2.87;0.93;;;11.00;99.90;;;;;;4886237;29;20199;-73
2023/01/08 08:03:34;;;;;;;1.00;0.70;;;11.00;99.90;;;;;;4879904;29;20193;-73
2023/01/08 08:06:00;;;;;;;1.40;1.07;;;11.00;99.90;;;;;;4888981;29;20464;-71
2023/01/08 08:08:25;;;;;;;1.40;0.87;;;11.00;99.90;;;;;;4890911;29;20200;-71
2023/01/08 08:10:51;;;;;;;1.50;0.80;;;11.00;99.90;;;;;;4891826;29;20189;-71
2023/01/08 08:13:16;;;;;;;1.63;0.87;;;10.90;99.90;;;;;;4888803;29;20252;-74
2023/01/08 08:15:42;;;;;;;1.00;0.70;;;11.00;99.90;;;;;;4893764;29;20219;-75
2023/01/08 08:18:08;;;;;;;1.00;0.67;;;11.00;99.90;;;;;;4895838;29;20184;-76
2023/01/08 08:20:34;;;;;;;1.50;0.80;;;10.90;99.90;;;;;;4897180;29;20192;-73
2023/01/08 08:23:04;;;;;;;3.10;1.00;;;10.90;99.90;;;;;;4888820;29;20290;-74
2023/01/08 08:25:30;;;;;;;1.40;1.00;;;10.90;99.90;;;;;;4889719;29;20256;-75
2023/01/08 08:28:00;;;;;;;1.97;1.00;;;10.80;99.90;;;;;;4883665;29;20432;-75
2023/01/08 08:30:27;;;;;;;1.67;0.97;;;10.70;99.90;;;;;;4887101;29;20184;-72
2023/01/08 08:32:54;;;;;;;2.30;0.80;;;10.70;99.90;;;;;;4896319;29;20501;-72
2023/01/08 08:35:20;;;;;;;1.10;0.80;;;10.60;99.90;;;;;;4888210;29;20535;-74
2023/01/08 08:37:46;;;;;;;1.37;1.03;;;10.70;99.90;;;;;;4890112;29;20437;-76
2023/01/08 08:40:12;;;;;;;1.80;1.30;;;10.70;99.90;;;;;;4891170;29;20780;-72
2023/01/08 08:42:37;;;;;;;6.63;1.40;;;10.70;99.90;;;;;;4887526;29;20188;-74
2023/01/08 08:45:03;;;;;;;3.47;1.80;;;10.70;99.90;;;;;;4893691;29;20648;-72
2023/01/08 08:47:29;;;;;;;2.10;1.10;;;10.60;99.90;;;;;;4891172;29;20193;-71
2023/01/08 08:49:54;;;;;;;3.80;2.03;;;10.70;99.90;;;;;;4887319;29;20455;-71
2023/01/08 08:52:20;;;;;;;5.90;2.27;;;10.70;99.90;;;;;;4899167;29;20192;-69
2023/01/08 08:54:45;;;;;;;5.83;1.60;;;10.80;99.90;;;;;;4899521;29;20220;-72
2023/01/08 08:57:11;;;;;;;3.80;1.70;;;10.70;99.90;;;;;;4880724;29;20189;-72
2023/01/08 08:59:37;;;;;;;2.50;1.30;;;10.70;99.90;;;;;;4896339;29;20203;-69
2023/01/08 09:02:03;;;;;;;5.27;2.20;;;10.70;99.90;;;;;;4892138;29;20200;-70
2023/01/08 09:04:32;;;;;;;2.60;1.43;;;10.70;99.90;;;;;;4888886;29;20200;-71
2023/01/08 09:06:58;;;;;;;5.17;1.70;;;10.70;99.90;;;;;;4890663;29;20444;-71
2023/01/08 09:09:23;;;;;;;4.10;1.33;;;10.70;99.90;;;;;;4890384;29;20440;-72
2023/01/08 09:11:50;;;;;;;7.37;1.90;;;10.70;99.90;;;;;;4891783;29;20203;-69
2023/01/08 09:14:15;;;;;;;7.40;1.20;;;10.70;99.90;;;;;;4883068;29;20229;-69
2023/01/08 09:16:41;;;;;;;7.33;2.17;;;10.70;99.90;;;;;;4892955;29;20531;-69
2023/01/08 09:19:07;;;;;;;6.87;1.77;;;10.70;99.90;;;;;;4887599;29;20245;-69
2023/01/08 09:21:33;;;;;;;7.53;2.20;;;10.70;99.90;;;;;;4880968;29;20205;-69
2023/01/08 09:23:58;;;;;;;7.23;1.77;;;10.60;99.90;;;;;;4893094;29;20517;-69
2023/01/08 09:26:27;;;;;;;12.53;2.47;;;10.70;99.90;;;;;;4895503;29;20704;-69
2023/01/08 09:28:53;;;;;;;9.50;3.07;;;10.60;99.90;;;;;;4886034;29;20195;-69
2023/01/08 09:31:18;;;;;;;8.23;2.47;;;10.60;99.90;;;;;;4886208;29;20977;-71
2023/01/08 09:33:46;;;;;;;6.10;2.20;;;10.60;99.90;;;;;;4889186;29;20205;-69
2023/01/08 09:36:12;;;;;;;3.00;1.70;;;10.70;99.90;;;;;;4891065;29;20192;-71
2023/01/08 09:38:37;;;;;;;6.37;3.10;;;10.70;99.90;;;;;;4872220;29;20961;-70
2023/01/08 09:41:08;;;;;;;6.63;3.10;;;10.70;99.90;;;;;;4888183;29;20185;-70
2023/01/08 09:43:36;;;;;;;6.03;1.70;;;10.60;99.90;;;;;;4884942;29;20188;-71
2023/01/08 09:46:05;;;;;;;4.20;1.80;;;10.70;99.90;;;;;;4882401;29;20449;-71
2023/01/08 09:48:36;;;;;;;3.30;2.30;;;10.70;99.90;;;;;;4898653;29;20445;-70
2023/01/08 09:51:03;;;;;;;7.40;1.60;;;10.80;99.90;;;;;;4897290;29;20436;-69
2023/01/08 09:53:29;;;;;;;5.30;1.57;;;10.80;99.90;;;;;;4895858;29;20469;-69
2023/01/08 09:56:03;;;;;;;3.10;1.20;;;11.00;99.90;;;;;;4891834;29;20460;-68
2023/01/08 09:58:37;;;;;;;8.10;2.20;;;11.00;99.90;;;;;;4887481;29;20596;-68
2023/01/08 10:01:04;;;;;;;9.93;2.60;;;11.20;99.90;;;;;;4889518;29;20437;-69
2023/01/08 10:03:38;;;;;;;5.77;2.30;;;11.30;99.90;;;;;;4891018;29;20437;-67
2023/01/08 10:06:12;;;;;;;4.20;1.63;;;11.40;99.90;;;;;;4891154;29;20532;-69
2023/01/08 10:08:38;;;;;;;9.07;2.40;;;11.40;99.90;;;;;;4884917;29;20532;-69
2023/01/08 10:11:06;;;;;;;6.80;1.80;;;11.60;99.90;;;;;;4896351;29;20440;-69
2023/01/08 10:13:34;;;;;;;5.70;1.73;;;11.70;99.90;;;;;;4897789;29;20506;-69
2023/01/08 10:15:59;;;;;;;8.30;1.70;;;11.80;99.90;;;;;;4899109;29;20925;-70
2023/01/08 10:18:27;;;;;;;5.73;1.60;;;12.00;99.90;;;;;;4895945;29;20433;-70
2023/01/08 10:20:53;;;;;;;9.10;2.27;;;12.10;99.90;;;;;;4892795;29;20209;-70
2023/01/08 10:23:21;;;;;;;2.43;1.73;;;12.10;99.90;;;;;;4892037;29;20444;-70
2023/01/08 10:25:50;;;;;;;2.53;1.57;;;12.20;99.90;;;;;;4883521;29;20197;-70
2023/01/08 10:28:20;;;;;;;3.90;1.50;;;12.20;99.90;;;;;;4888682;29;20439;-70
2023/01/08 10:30:46;;;;;;;9.90;1.60;;;12.20;99.90;;;;;;4887223;29;20497;-70
2023/01/08 10:33:28;;;;;;;4.07;1.43;;;12.20;99.90;;;;;;4884501;29;20449;-70
2023/01/08 10:36:01;;;;;;;5.37;2.23;;;12.20;99.90;;;;;;4883478;29;20203;-70
2023/01/08 10:38:32;;;;;;;7.30;1.70;;;12.10;99.90;;;;;;4893572;29;20444;-69
2023/01/08 10:41:00;;;;;;;3.50;1.70;;;12.10;99.90;;;;;;4895968;29;20449;-71
2023/01/08 10:43:33;;;;;;;7.03;2.20;;;12.10;99.90;;;;;;4897021;29;20801;-70
2023/01/08 10:46:01;;;;;;;2.53;1.30;;;12.10;99.90;;;;;;4895451;29;20508;-70
2023/01/08 10:48:33;;;;;;;4.13;1.20;;;12.10;99.90;;;;;;4893129;29;20464;-70
2023/01/08 10:51:19;;;;;;;3.57;1.30;;;12.30;99.90;;;;;;4881519;29;20822;-70
2023/01/08 10:53:44;;;;;;;4.10;1.40;;;12.30;99.90;;;;;;4871602;29;20476;-69
2023/01/08 10:56:22;;;;;;;4.50;2.20;;;12.40;99.90;;;;;;4887731;29;20444;-71
2023/01/08 10:58:48;;;;;;;5.07;1.40;;;12.40;99.90;;;;;;4887903;29;20561;-70
2023/01/08 11:01:23;;;;;;;4.27;1.63;;;12.30;99.90;;;;;;4891046;29;20453;-70
2023/01/08 11:03:57;;;;;;;1.70;1.60;;;12.40;99.90;;;;;;4881504;29;20535;-69
2023/01/08 11:06:26;;;;;;;4.03;1.63;;;12.60;99.90;;;;;;4881447;29;20835;-68
2023/01/08 11:08:55;;;;;;;4.43;1.30;;;12.60;99.90;;;;;;4879153;29;20444;-71
2023/01/08 11:11:22;;;;;;;4.90;1.30;;;12.60;99.90;;;;;;4878882;29;20449;-70
2023/01/08 11:13:57;;;;;;;1.73;1.00;;;12.60;99.90;;;;;;4893670;29;20531;-69
2023/01/08 11:16:35;;;;;;;5.13;1.63;;;12.70;99.90;;;;;;4890654;29;21031;-69
2023/01/08 11:19:01;;;;;;;3.97;1.10;;;12.80;99.90;;;;;;4892580;29;20472;-68
2023/01/08 11:21:32;;;;;;;5.67;1.70;;;12.70;99.90;;;;;;4886654;29;20975;-68
2023/01/08 11:24:10;;;;;;;3.77;1.40;;;12.70;99.90;;;;;;4889941;29;20493;-68
2023/01/08 11:26:37;;;;;;;4.57;1.70;;;12.70;99.90;;;;;;4887799;29;20449;-68
2023/01/08 11:29:21;;;;;;;3.33;1.40;;;12.90;99.90;;;;;;4892009;29;20185;-68
2023/01/08 11:32:03;;;;;;;3.30;1.53;;;12.90;99.90;;;;;;4881751;29;20469;-68
2023/01/08 11:34:49;;;;;;;2.70;1.73;;;12.80;99.90;;;;;;4882341;29;20465;-68
2023/01/08 11:37:26;;;;;;;6.50;1.27;;;12.90;99.90;;;;;;4877973;29;20862;-68
2023/01/08 11:39:53;;;;;;;2.60;1.50;;;12.90;99.90;;;;;;4881116;29;20444;-68
2023/01/08 11:42:46;;;;;;;6.73;1.67;;;12.80;99.90;;;;;;4879814;29;20437;-69
2023/01/08 11:45:25;;;;;;;3.57;1.60;;;12.90;99.90;;;;;;4889303;29;20445;-68
2023/01/08 11:48:22;;;;;;;2.07;1.40;;;12.90;99.90;;;;;;4888105;29;20492;-68
2023/01/08 11:51:12;;;;;;;2.70;1.63;;;12.70;99.90;;;;;;4891124;29;20443;-68
2023/01/08 11:54:00;;;;;;;2.93;1.43;;;12.70;99.90;;;;;;4888191;29;20472;-68
2023/01/08 11:56:55;;;;;;;1.50;0.90;;;12.80;99.90;;;;;;4888192;29;20457;-68
2023/01/08 11:59:35;;;;;;;1.80;1.23;;;12.80;99.90;;;;;;4886096;29;20538;-68
2023/01/08 12:02:20;;;;;;;3.37;1.40;;;12.80;99.90;;;;;;4883422;29;20437;-68
2023/01/08 12:05:23;;;;;;;3.43;1.50;;;12.90;99.90;;;;;;4878830;29;20446;-68
2023/01/08 12:07:55;;;;;;;2.20;1.27;;;12.90;99.90;;;;;;4881262;29;20440;-68
2023/01/08 12:10:39;;;;;;;2.80;1.20;;;12.80;99.90;;;;;;4894139;29;20852;-68
2023/01/08 12:13:26;;;;;;;2.90;1.83;;;12.70;99.90;;;;;;4885279;29;20492;-67
2023/01/08 12:16:09;;;;;;;1.77;1.30;;;12.60;99.90;;;;;;4887114;29;20948;-67
2023/01/08 12:18:48;;;;;;;1.50;1.30;;;12.60;99.90;;;;;;4888501;29;20444;-67
2023/01/08 12:21:38;;;;;;;4.90;1.50;;;12.60;99.90;;;;;;4887719;29;20451;-69
2023/01/08 12:24:18;;;;;;;1.30;0.80;;;12.70;99.90;;;;;;4865183;29;20457;-68
2023/01/08 12:27:16;;;;;;;2.10;1.37;;;12.60;99.90;;;;;;4884570;29;20444;-69
2023/01/08 12:30:00;;;;;;;3.20;1.10;;;12.60;99.90;;;;;;4881911;29;20815;-69
2023/01/08 12:32:38;;;;;;;2.67;1.00;;;12.50;99.90;;;;;;4879483;29;20481;-70
2023/01/08 12:35:19;;;;;;;1.83;1.17;;;12.40;99.90;;;;;;4880403;29;21052;-69
2023/01/08 12:38:02;;;;;;;2.37;1.13;;;12.40;99.90;;;;;;4883883;29;20452;-69
2023/01/08 12:40:51;;;;;;;1.60;1.00;;;12.40;99.90;;;;;;4884309;29;20845;-67
2023/01/08 12:43:24;;;;;;;4.83;1.17;;;12.50;99.90;;;;;;4887835;29;20449;-68
2023/01/08 12:45:52;;;;;;;2.43;1.03;;;12.60;99.90;;;;;;4886777;29;20560;-69
2023/01/08 12:48:28;;;;;;;2.00;1.40;;;12.70;99.90;;;;;;4889529;29;20449;-69
2023/01/08 12:51:16;;;;;;;1.20;0.97;;;12.80;99.90;;;;;;4883338;29;20497;-70
2023/01/08 12:54:01;;;;;;;4.43;1.10;;;12.80;99.90;;;;;;4884774;29;20520;-70
2023/01/08 12:56:56;;;;;;;3.77;1.30;;;12.80;99.90;;;;;;4883899;29;20437;-69
2023/01/08 12:59:48;;;;;;;1.30;1.10;;;12.70;99.90;;;;;;4878802;29;20465;-70
2023/01/08 13:02:32;;;;;;;2.43;1.17;;;12.70;99.90;;;;;;4882825;29;20435;-69
2023/01/08 13:05:27;;;;;;;1.40;0.90;;;12.70;99.90;;;;;;4883104;29;20528;-70
2023/01/08 13:07:59;;;;;;;1.50;1.07;;;12.70;99.90;;;;;;4870674;29;20437;-69
2023/01/08 13:10:35;;;;;;;1.87;1.03;;;12.70;99.90;;;;;;4889370;29;20440;-69
2023/01/08 13:13:02;;;;;;;1.93;1.27;;;12.70;99.90;;;;;;4890026;29;20861;-69
2023/01/08 13:15:30;;;;;;;5.83;1.27;;;12.90;99.90;;;;;;4892831;29;20980;-69
2023/01/08 13:17:59;;;;;;;1.93;1.20;;;12.80;99.90;;;;;;4891534;29;20834;-69
2023/01/08 13:20:30;;;;;;;4.70;1.10;;;12.90;99.90;;;;;;4885584;29;20462;-71
2023/01/08 13:22:59;;;;;;;1.10;0.73;;;12.90;99.90;;;;;;4886380;29;20474;-70
2023/01/08 13:25:37;;;;;;;1.50;0.90;;;12.90;99.90;;;;;;4893010;29;20440;-70
2023/01/08 13:28:33;;;;;;;1.20;1.00;;;13.10;99.90;;;;;;4880405;29;21171;-70
2023/01/08 13:31:23;;;;;;;1.20;1.00;;;13.20;99.90;;;;;;4879747;29;20473;-70
2023/01/08 13:33:52;;;;;;;1.20;0.97;;;13.40;99.90;;;;;;4884885;29;20953;-69
2023/01/08 13:36:21;;;;;;;3.20;1.30;;;13.20;99.90;;;;;;4888358;29;20499;-69
2023/01/08 13:39:22;;;;;;;1.60;1.10;;;13.30;99.90;;;;;;4888050;29;20421;-70
2023/01/08 13:42:18;;;;;;;3.90;1.37;;;13.20;99.90;;;;;;4887758;29;20553;-70
2023/01/08 13:44:56;;;;;;;2.13;1.07;;;13.20;99.90;;;;;;4885110;29;20464;-69
2023/01/08 13:47:33;;;;;;;3.50;2.00;;;13.10;99.90;;;;;;4892887;29;20441;-71
2023/01/08 13:50:03;;;;;;;1.63;0.97;;;13.10;99.90;;;;;;4878585;29;20952;-71
2023/01/08 13:52:44;;;;;;;1.40;1.00;;;12.90;99.90;;;;;;4896918;29;20472;-71
2023/01/08 13:55:37;;;;;;;2.40;1.30;;;12.90;99.90;;;;;;4863125;29;20473;-70
2023/01/08 13:58:22;;;;;;;1.67;1.30;;;12.90;99.90;;;;;;4889915;29;20575;-70
2023/01/08 14:00:51;;;;;;;1.63;1.10;;;12.80;99.90;;;;;;4886816;29;20437;-73
2023/01/08 14:03:28;;;;;;;2.50;1.10;;;12.90;99.90;;;;;;4881183;29;20442;-74
2023/01/08 14:06:17;;;;;;;1.77;0.93;;;12.80;99.90;;;;;;4889046;29;20280;-71
2023/01/08 14:08:52;;;;;;;1.03;0.70;;;12.60;99.90;;;;;;4889502;29;20452;-72
2023/01/08 14:11:21;;;;;;;1.33;1.23;;;12.50;99.90;;;;;;4886036;29;20440;-72
2023/01/08 14:13:47;;;;;;;2.80;0.90;;;12.50;99.90;;;;;;4869129;29;20465;-71
2023/01/08 14:16:15;;;;;;;1.20;1.10;;;12.20;99.90;;;;;;4895299;29;20446;-72
2023/01/08 14:18:44;;;;;;;3.30;1.10;;;12.10;99.90;;;;;;4896924;29;20435;-72
2023/01/08 14:21:14;;;;;;;1.97;1.13;;;12.10;99.90;;;;;;4898121;29;20441;-72
2023/01/08 14:23:45;;;;;;;2.93;1.30;;;12.10;99.90;;;;;;4890941;29;20517;-73
2023/01/08 14:26:34;;;;;;;1.90;1.07;;;11.80;99.90;;;;;;4882859;29;20429;-71
2023/01/08 14:29:02;;;;;;;2.37;1.10;;;11.90;99.90;;;;;;4879686;29;20454;-71
2023/01/08 14:31:28;;;;;;;5.40;1.13;;;11.90;99.90;;;;;;4889329;29;20828;-71
2023/01/08 14:33:56;;;;;;;2.63;1.30;;;11.90;99.90;;;;;;4890286;29;20477;-71
2023/01/08 14:36:22;;;;;;;1.50;1.00;;;11.90;99.90;;;;;;4888459;29;20461;-72
2023/01/08 14:38:51;;;;;;;1.40;0.90;;;11.80;99.90;;;;;;4886126;29;20449;-73
2023/01/08 14:42:41;;;;;;;1.10;0.90;;;11.90;99.90;;;;;;4885614;29;20500;-73
2023/01/08 14:44:19;;;;;;;1.10;0.90;;;11.90;99.90;;;;;;4892604;29;20445;-74
2023/01/08 14:46:45;;;;;;;1.80;1.57;;;11.80;99.90;;;;;;4897270;29;20464;-73
2023/01/08 14:49:33;;;;;;;3.03;1.70;;;11.80;99.90;;;;;;4897916;29;20479;-74
2023/01/08 14:52:01;;;;;;;1.50;1.10;;;11.70;99.90;;;;;;4896372;29;20806;-72
2023/01/08 14:54:33;;;;;;;3.63;1.30;;;11.60;99.90;;;;;;4894376;29;20491;-72
2023/01/08 14:57:00;;;;;;;2.30;1.20;;;11.60;99.90;;;;;;4892499;29;20464;-72
2023/01/08 14:59:30;;;;;;;3.10;1.30;;;11.50;99.90;;;;;;4884110;29;20937;-72
2023/01/08 15:01:59;;;;;;;2.50;1.10;;;11.40;99.90;;;;;;4888187;29;20451;-72
2023/01/08 15:04:27;;;;;;;1.60;1.50;;;11.40;99.90;;;;;;4889719;29;20852;-73
2023/01/08 15:07:07;;;;;;;1.10;0.80;;;11.40;99.90;;;;;;4883503;29;20476;-74
2023/01/08 15:09:34;;;;;;;3.07;1.80;;;11.50;99.90;;;;;;4884289;29;20537;-73
2023/01/08 15:12:07;;;;;;;1.70;0.93;;;11.50;99.90;;;;;;4881929;29;20961;-74
2023/01/08 15:14:36;;;;;;;2.33;1.37;;;11.50;99.90;;;;;;4888749;29;20532;-72
2023/01/08 15:17:11;;;;;;;2.13;1.43;;;11.50;99.90;;;;;;4892797;29;20612;-74
2023/01/08 15:19:47;;;;;;;1.43;0.90;;;11.50;99.90;;;;;;4880329;29;20449;-74
2023/01/08 15:22:18;;;;;;;1.80;1.30;;;11.40;99.90;;;;;;4878365;29;20438;-72
2023/01/08 15:24:57;;;;;;;1.10;0.87;;;11.40;99.90;;;;;;4887541;29;20524;-75
2023/01/08 15:27:23;;;;;;;2.20;0.83;;;11.50;99.90;;;;;;4889545;29;20982;-76
2023/01/08 15:29:59;;;;;;;1.93;0.93;;;11.40;99.90;;;;;;4888306;29;20484;-73
2023/01/08 15:32:35;;;;;;;1.70;1.10;;;11.50;99.90;;;;;;4886117;29;20492;-73
2023/01/08 15:35:15;;;;;;;3.90;1.23;;;11.40;99.90;;;;;;4885016;29;20961;-75
2023/01/08 15:37:41;;;;;;;1.90;1.13;;;11.30;99.90;;;;;;4886270;29;20428;-76
2023/01/08 15:40:09;;;;;;;1.23;0.83;;;11.30;99.90;;;;;;4880950;29;20901;-73
2023/01/08 15:45:24;;;;;;;1.30;1.13;;;11.20;99.90;;;;;;4881482;29;20469;-74
2023/01/08 15:47:50;;;;;;;6.50;1.07;;;11.30;99.90;;;;;;4880849;29;20445;-73
2023/01/08 15:50:16;;;;;;;3.57;1.00;;;11.20;99.90;;;;;;4880391;29;20437;-74
2023/01/08 15:52:42;;;;;;;1.30;0.80;;;11.20;99.90;;;;;;4886028;29;20328;-74
2023/01/08 15:55:16;;;;;;;4.13;1.00;;;11.30;99.90;;;;;;4889443;29;20252;-73
2023/01/08 15:57:42;;;;;;;1.60;1.00;;;11.30;99.90;;;;;;4887164;29;20460;-74
2023/01/08 16:00:13;;;;;;;3.53;1.50;;;11.20;99.90;;;;;;4891285;29;20850;-75
2023/01/08 16:02:43;;;;;;;2.43;1.40;;;11.30;99.90;;;;;;4890388;29;20184;-74
2023/01/08 16:05:09;;;;;;;1.40;1.13;;;11.30;99.90;;;;;;4888142;29;20445;-73
2023/01/08 16:07:35;;;;;;;2.07;1.47;;;11.20;99.90;;;;;;4882755;29;20446;-75
2023/01/08 16:10:01;;;;;;;2.67;1.30;;;11.20;99.90;;;;;;4886951;29;20929;-74
2023/01/08 16:12:26;;;;;;;3.97;2.07;;;11.30;99.90;;;;;;4876442;29;20193;-80
2023/01/08 16:14:52;;;;;;;4.13;2.50;;;11.30;99.90;;;;;;4879654;29;20300;-76
2023/01/08 16:17:17;;;;;;;3.17;1.97;;;11.30;99.90;;;;;;4883628;29;20279;-77
2023/01/08 16:19:43;;;;;;;2.43;1.70;;;11.30;99.90;;;;;;4885168;29;20545;-77
2023/01/08 16:22:08;;;;;;;2.63;1.20;;;11.30;99.90;;;;;;4886770;29;20241;-78
2023/01/08 16:24:34;;;;;;;1.73;1.27;;;11.30;99.90;;;;;;4888471;29;20224;-75
2023/01/08 16:26:59;;;;;;;2.17;1.00;;;11.40;99.90;;;;;;4889879;29;20280;-73
2023/01/08 16:29:26;;;;;;;2.50;1.27;;;11.40;99.90;;;;;;4883823;29;20272;-75
2023/01/08 16:31:53;;;;;;;2.80;1.33;;;11.40;99.90;;;;;;4885695;29;20245;-75
2023/01/08 16:34:18;;;;;;;2.67;1.80;;;11.30;99.90;;;;;;4898220;29;20857;-75
2023/01/08 16:36:44;;;;;;;4.27;1.13;;;11.30;99.90;;;;;;4886223;29;20449;-72
2023/01/08 16:39:09;;;;;;;2.07;1.33;;;11.30;99.90;;;;;;4896801;29;20275;-73
2023/01/08 16:41:35;;;;;;;1.70;1.00;;;11.30;99.90;;;;;;4889317;29;20638;-74
2023/01/08 16:44:01;;;;;;;1.33;1.20;;;11.30;99.90;;;;;;4883677;29;20297;-75
2023/01/08 16:46:28;;;;;;;2.83;1.57;;;11.30;99.90;;;;;;4885213;29;20181;-74
2023/01/08 16:48:54;;;;;;;3.30;1.60;;;11.30;99.90;;;;;;4891335;29;20679;-74
2023/01/08 16:51:20;;;;;;;3.60;1.70;;;11.30;99.90;;;;;;4891597;29;20437;-71
2023/01/08 16:53:45;;;;;;;3.20;1.33;;;11.30;99.90;;;;;;4891262;29;20311;-72
2023/01/08 16:56:11;;;;;;;2.80;1.50;;;11.20;99.90;;;;;;4888369;29;20451;-73
2023/01/08 16:58:37;;;;;;;2.13;1.50;;;11.30;99.90;;;;;;4893644;29;20235;-73
2023/01/08 17:01:07;;;;;;;2.00;1.70;;;11.30;99.90;;;;;;4881366;29;20215;-74
2023/01/08 17:03:34;;;;;;;2.40;1.87;;;11.30;99.90;;;;;;4882797;29;20189;-74
2023/01/08 17:06:04;;;;;;;1.83;1.40;;;11.30;99.90;;;;;;4881906;29;20873;-73
2023/01/08 17:08:30;;;;;;;2.33;1.20;;;11.20;99.90;;;;;;4868834;29;20516;-76